createdAt,value
2022-09-29T00:01:13.389Z,38.70
2022-09-29T00:03:41.478Z,27.40
2022-09-29T00:06:18.898Z,66.50
2022-09-29T00:08:47.131Z,34.00
2022-09-29T00:11:18.015Z,36.20
2022-09-29T00:13:48.046Z,46.90
2022-09-29T00:16:16.991Z,134.30
2022-09-29T00:18:45.059Z,58.20
2022-09-29T00:21:16.102Z,61.40
2022-09-29T00:23:43.863Z,42.00
2022-09-29T00:26:18.162Z,67.60
2022-09-29T00:28:52.956Z,197.90
2022-09-29T00:31:21.496Z,112.20
2022-09-29T00:33:50.899Z,60.20
2022-09-29T00:36:20.851Z,26.00
2022-09-29T00:38:50.779Z,18.50
2022-09-29T00:41:24.551Z,23.30
2022-09-29T00:43:52.469Z,23.30
2022-09-29T00:46:47.694Z,16.40
2022-09-29T00:49:24.545Z,15.80
2022-09-29T00:52:07.691Z,23.00
2022-09-29T00:54:44.707Z,18.20
2022-09-29T00:57:16.797Z,22.00
2022-09-29T00:59:57.752Z,18.60
2022-09-29T01:02:26.845Z,17.10
2022-09-29T01:04:55.754Z,15.00
2022-09-29T01:07:25.370Z,14.90
2022-09-29T01:09:56.427Z,18.20
2022-09-29T01:12:24.450Z,16.20
2022-09-29T01:14:54.394Z,19.00
2022-09-29T01:17:23.571Z,18.30
2022-09-29T01:20:13.408Z,17.40
2022-09-29T01:23:18.895Z,18.60
2022-09-29T01:26:05.681Z,17.70
2022-09-29T01:28:53.029Z,18.80
2022-09-29T01:31:59.263Z,18.50
2022-09-29T01:34:54.408Z,19.80
2022-09-29T01:37:30.148Z,19.90
2022-09-29T01:40:04.049Z,19.90
2022-09-29T01:42:44.227Z,19.80
2022-09-29T01:45:15.334Z,19.80
2022-09-29T01:47:49.861Z,18.50
2022-09-29T01:50:36.093Z,20.20
2022-09-29T01:53:15.945Z,19.00
2022-09-29T01:55:50.700Z,20.00
2022-09-29T01:58:25.497Z,19.50
2022-09-29T02:00:59.438Z,19.80
2022-09-29T02:04:05.396Z,16.40
2022-09-29T02:06:40.666Z,17.60
2022-09-29T02:09:19.333Z,16.70
2022-09-29T02:11:50.063Z,17.80
2022-09-29T02:14:25.825Z,16.90
2022-09-29T02:17:05.266Z,15.30
2022-09-29T02:19:39.301Z,17.60
2022-09-29T02:22:07.085Z,16.00
2022-09-29T02:24:35.132Z,14.20
2022-09-29T02:27:04.295Z,13.20
2022-09-29T02:29:35.814Z,13.60
2022-09-29T02:32:10.150Z,14.10
2022-09-29T02:34:42.389Z,15.50
2022-09-29T02:37:31.093Z,13.20
2022-09-29T02:40:04.855Z,12.20
2022-09-29T02:42:58.598Z,12.30
2022-09-29T02:45:57.455Z,12.10
2022-09-29T02:48:56.707Z,12.70
2022-09-29T02:51:32.529Z,14.70
2022-09-29T02:54:32.346Z,12.90
2022-09-29T02:57:30.113Z,13.20
2022-09-29T03:00:11.535Z,12.50
2022-09-29T03:02:41.955Z,12.30
2022-09-29T03:05:18.942Z,11.80
2022-09-29T03:07:47.088Z,13.40
2022-09-29T03:10:16.923Z,14.40
2022-09-29T03:12:46.355Z,15.00
2022-09-29T03:15:14.874Z,16.40
2022-09-29T03:17:42.646Z,14.50
2022-09-29T03:20:10.854Z,16.40
2022-09-29T03:22:38.767Z,15.70
2022-09-29T03:25:07.980Z,17.20
2022-09-29T03:27:38.383Z,15.00
2022-09-29T03:30:07.620Z,17.20
2022-09-29T03:32:35.443Z,17.20
2022-09-29T03:35:03.351Z,15.50
2022-09-29T03:37:31.482Z,16.00
2022-09-29T03:39:59.258Z,18.50
2022-09-29T03:42:28.429Z,15.60
2022-09-29T03:44:56.153Z,19.20
2022-09-29T03:47:24.213Z,16.20
2022-09-29T03:49:52.049Z,16.00
2022-09-29T03:52:20.360Z,19.10
2022-09-29T03:54:48.173Z,15.20
2022-09-29T03:57:16.266Z,17.10
2022-09-29T03:59:45.721Z,16.00
2022-09-29T04:02:14.372Z,18.90
2022-09-29T04:04:42.506Z,16.20
2022-09-29T04:07:10.293Z,15.70
2022-09-29T04:09:38.426Z,16.20
2022-09-29T04:12:06.605Z,15.20
2022-09-29T04:14:34.543Z,15.90
2022-09-29T04:17:02.683Z,17.10
2022-09-29T04:19:31.034Z,15.60
2022-09-29T04:21:59.324Z,15.10
2022-09-29T04:24:27.390Z,15.80
2022-09-29T04:26:55.200Z,16.30
2022-09-29T04:29:23.118Z,16.00
2022-09-29T04:31:50.923Z,16.80
2022-09-29T04:34:19.204Z,14.70
2022-09-29T04:36:47.190Z,16.00
2022-09-29T04:39:14.994Z,15.30
2022-09-29T04:41:43.099Z,15.70
2022-09-29T04:44:11.125Z,14.60
2022-09-29T04:46:38.913Z,15.30
2022-09-29T04:49:06.762Z,18.00
2022-09-29T04:51:35.054Z,19.60
2022-09-29T04:54:02.970Z,17.90
2022-09-29T04:56:31.811Z,19.90
2022-09-29T04:58:59.679Z,16.50
2022-09-29T05:01:27.699Z,17.20
2022-09-29T05:03:56.118Z,17.30
2022-09-29T05:06:23.884Z,20.70
2022-09-29T05:08:51.621Z,25.50
2022-09-29T05:11:19.533Z,19.60
2022-09-29T05:13:53.186Z,20.10
2022-09-29T05:16:21.008Z,17.50
2022-09-29T05:18:50.048Z,20.00
2022-09-29T05:21:33.204Z,20.20
2022-09-29T05:24:01.254Z,20.40
2022-09-29T05:26:29.033Z,19.40
2022-09-29T05:28:56.808Z,18.10
2022-09-29T05:31:24.764Z,17.60
2022-09-29T05:33:52.744Z,17.70
2022-09-29T05:36:20.556Z,17.70
2022-09-29T05:38:48.810Z,16.40
2022-09-29T05:41:19.015Z,19.80
2022-09-29T05:43:46.990Z,19.80
2022-09-29T05:46:16.330Z,19.80
2022-09-29T05:48:44.209Z,20.70
2022-09-29T05:51:20.679Z,20.10
2022-09-29T05:53:52.008Z,18.40
2022-09-29T05:56:25.658Z,18.70
2022-09-29T05:58:54.317Z,18.50
2022-09-29T06:01:26.102Z,19.60
2022-09-29T06:03:55.678Z,17.60
2022-09-29T06:06:26.801Z,19.00
2022-09-29T06:08:55.563Z,18.80
2022-09-29T06:11:28.800Z,19.10
2022-09-29T06:13:56.920Z,21.00
2022-09-29T06:16:27.478Z,20.70
2022-09-29T06:18:55.747Z,17.70
2022-09-29T06:21:26.272Z,65.40
2022-09-29T06:23:55.782Z,23.90
2022-09-29T06:26:26.166Z,19.60
2022-09-29T06:28:55.201Z,19.80
2022-09-29T06:31:26.002Z,17.50
2022-09-29T06:33:58.052Z,17.20
2022-09-29T06:36:53.758Z,16.50
2022-09-29T06:39:21.966Z,16.60
2022-09-29T06:41:56.273Z,20.70
2022-09-29T06:44:30.134Z,18.10
2022-09-29T06:46:58.945Z,17.10
2022-09-29T06:49:27.306Z,17.90
2022-09-29T06:51:55.041Z,17.80
2022-09-29T06:54:27.180Z,23.50
2022-09-29T06:56:55.804Z,17.30
2022-09-29T06:59:23.949Z,18.70
2022-09-29T07:01:52.025Z,20.60
2022-09-29T07:04:22.158Z,17.80
2022-09-29T07:06:51.105Z,15.30
2022-09-29T07:09:19.913Z,15.90
2022-09-29T07:11:51.392Z,19.60
2022-09-29T07:14:22.896Z,18.10
2022-09-29T07:16:52.114Z,15.70
2022-09-29T07:19:20.721Z,19.80
2022-09-29T07:21:49.388Z,15.80
2022-09-29T07:24:17.262Z,19.70
2022-09-29T07:26:45.690Z,18.70
2022-09-29T07:29:15.809Z,17.00
2022-09-29T07:31:52.019Z,16.20
2022-09-29T07:34:22.652Z,15.60
2022-09-29T07:36:50.960Z,16.80
2022-09-29T07:39:20.879Z,18.20
2022-09-29T07:41:50.041Z,17.70
2022-09-29T07:44:18.366Z,18.70
2022-09-29T07:46:48.845Z,19.40
2022-09-29T07:49:16.717Z,18.60
2022-09-29T07:51:44.665Z,20.90
2022-09-29T07:54:12.493Z,17.10
2022-09-29T07:56:40.887Z,18.10
2022-09-29T07:59:10.836Z,17.20
2022-09-29T08:01:38.667Z,17.60
2022-09-29T08:04:06.702Z,21.10
2022-09-29T08:06:34.973Z,17.80
2022-09-29T08:09:05.181Z,18.70
2022-09-29T08:11:38.510Z,18.90
2022-09-29T08:14:08.514Z,17.80
2022-09-29T08:16:37.763Z,17.90
2022-09-29T08:19:06.280Z,19.30
2022-09-29T08:21:37.203Z,16.80
2022-09-29T08:24:07.038Z,18.90
2022-09-29T08:26:43.455Z,15.80
2022-09-29T08:29:17.178Z,14.70
2022-09-29T08:31:46.443Z,15.40
2022-09-29T08:34:15.684Z,15.20
2022-09-29T08:36:44.234Z,17.70
2022-09-29T08:39:13.027Z,16.70
2022-09-29T08:42:12.906Z,17.80
2022-09-29T08:44:51.844Z,15.50
2022-09-29T08:47:44.761Z,15.10
2022-09-29T08:53:22.315Z,17.90
2022-09-29T08:56:09.744Z,16.40
2022-09-29T08:58:38.845Z,14.50
2022-09-29T09:01:28.016Z,15.00
2022-09-29T09:04:23.522Z,15.90
2022-09-29T09:07:11.782Z,16.30
2022-09-29T09:09:44.526Z,16.50
2022-09-29T09:12:50.062Z,17.20
2022-09-29T09:15:36.289Z,18.20
2022-09-29T09:18:24.686Z,19.90
2022-09-29T09:20:54.245Z,17.80
2022-09-29T09:23:31.019Z,14.50
2022-09-29T09:26:02.603Z,16.70
2022-09-29T09:28:46.001Z,18.60
2022-09-29T09:31:16.872Z,17.30
2022-09-29T09:34:02.121Z,16.90
2022-09-29T09:36:39.065Z,17.40
2022-09-29T09:39:19.257Z,19.80
2022-09-29T09:41:51.209Z,15.90
2022-09-29T09:44:25.380Z,15.60
2022-09-29T09:46:57.481Z,15.30
2022-09-29T09:49:45.764Z,16.40
2022-09-29T09:52:29.899Z,14.20
2022-09-29T09:55:01.491Z,15.90
2022-09-29T09:57:46.837Z,18.20
2022-09-29T10:00:17.738Z,14.70
2022-09-29T10:02:51.735Z,15.80
2022-09-29T10:05:24.705Z,14.00
2022-09-29T10:07:54.960Z,14.10
2022-09-29T10:10:26.654Z,14.50
2022-09-29T10:13:13.274Z,13.30
2022-09-29T10:16:05.898Z,13.50
2022-09-29T10:18:48.747Z,11.60
2022-09-29T10:21:26.337Z,13.30
2022-09-29T10:23:55.867Z,12.90
2022-09-29T10:26:27.325Z,12.80
2022-09-29T10:29:04.452Z,13.50
2022-09-29T10:31:36.521Z,14.40
2022-09-29T10:34:10.509Z,14.30
2022-09-29T10:36:56.474Z,14.80
2022-09-29T10:39:43.242Z,12.70
2022-09-29T10:42:20.950Z,14.20
2022-09-29T10:44:55.101Z,12.80
2022-09-29T10:47:23.392Z,13.40
2022-09-29T10:50:11.749Z,12.50
2022-09-29T10:52:43.855Z,13.80
2022-09-29T10:55:36.256Z,12.10
2022-09-29T10:58:44.241Z,13.80
2022-09-29T11:01:15.967Z,13.90
2022-09-29T11:04:06.870Z,12.90
2022-09-29T11:06:44.074Z,14.00
2022-09-29T11:09:13.190Z,12.70
2022-09-29T11:11:47.059Z,12.70
2022-09-29T11:14:40.311Z,11.80
2022-09-29T11:17:28.790Z,9.30
2022-09-29T11:20:03.300Z,11.10
2022-09-29T11:23:00.434Z,10.20
2022-09-29T11:25:47.771Z,8.60
2022-09-29T11:28:43.195Z,8.40
2022-09-29T11:31:29.197Z,10.40
2022-09-29T11:33:59.959Z,8.70
2022-09-29T11:36:42.432Z,10.10
2022-09-29T11:39:25.001Z,9.50
2022-09-29T11:41:59.368Z,11.80
2022-09-29T11:44:45.556Z,11.10
2022-09-29T11:47:42.689Z,11.00
2022-09-29T11:50:20.093Z,10.10
2022-09-29T11:53:12.633Z,9.80
2022-09-29T11:55:42.346Z,8.50
2022-09-29T11:58:24.255Z,9.10
2022-09-29T12:01:01.324Z,9.10
2022-09-29T12:03:52.825Z,50.00
2022-09-29T12:06:44.850Z,25.40
2022-09-29T12:09:29.056Z,19.30
2022-09-29T12:12:23.233Z,10.60
2022-09-29T12:18:09.349Z,9.20
2022-09-29T12:20:42.710Z,8.60
2022-09-29T12:23:14.466Z,13.70
2022-09-29T12:26:17.797Z,10.30
2022-09-29T12:29:02.257Z,10.50
2022-09-29T12:31:36.334Z,8.70
2022-09-29T12:34:16.057Z,9.40
2022-09-29T12:36:54.221Z,7.20
2022-09-29T12:39:37.393Z,8.00
2022-09-29T12:42:27.122Z,9.00
2022-09-29T12:45:02.044Z,7.70
2022-09-29T12:47:48.193Z,14.50
2022-09-29T12:50:16.935Z,11.10
2022-09-29T12:53:24.440Z,8.40
2022-09-29T12:55:58.855Z,5.80
2022-09-29T12:58:36.233Z,8.10
2022-09-29T13:01:27.925Z,7.10
2022-09-29T13:04:01.794Z,5.20
2022-09-29T13:06:57.615Z,6.30
2022-09-29T13:09:56.285Z,5.60
2022-09-29T13:12:29.917Z,5.00
2022-09-29T13:15:24.935Z,3.10
2022-09-29T13:18:33.889Z,4.00
2022-09-29T13:21:23.414Z,3.80
2022-09-29T13:24:09.507Z,4.80
2022-09-29T13:26:53.195Z,4.70
2022-09-29T13:29:26.755Z,3.10
2022-09-29T13:31:56.946Z,4.80
2022-09-29T13:34:34.017Z,6.70
2022-09-29T13:37:08.177Z,6.90
2022-09-29T13:39:36.119Z,5.10
2022-09-29T13:42:35.398Z,5.30
2022-09-29T13:45:21.407Z,4.80
2022-09-29T13:47:53.130Z,5.50
2022-09-29T13:50:53.123Z,6.70
2022-09-29T13:53:28.368Z,6.60
2022-09-29T13:56:10.019Z,8.70
2022-09-29T13:58:56.546Z,10.60
2022-09-29T14:01:38.145Z,9.20
2022-09-29T14:04:34.445Z,6.50
2022-09-29T14:07:08.197Z,5.20
2022-09-29T14:09:43.887Z,4.10
2022-09-29T14:12:24.349Z,5.90
2022-09-29T14:15:00.681Z,5.80
2022-09-29T14:17:42.701Z,6.80
2022-09-29T14:20:21.973Z,8.80
2022-09-29T14:22:54.514Z,8.40
2022-09-29T14:25:49.492Z,7.80
2022-09-29T14:28:25.377Z,9.80
2022-09-29T14:30:57.892Z,11.20
2022-09-29T14:33:30.182Z,8.50
2022-09-29T14:36:00.993Z,6.10
2022-09-29T14:38:38.300Z,11.70
2022-09-29T14:41:06.038Z,24.70
2022-09-29T14:43:53.750Z,15.00
2022-09-29T14:47:05.985Z,10.10
2022-09-29T14:49:55.726Z,10.00
2022-09-29T14:52:50.814Z,9.20
2022-09-29T14:55:34.142Z,121.10
2022-09-29T14:58:24.470Z,33.10
2022-09-29T15:01:11.063Z,13.40
2022-09-29T15:03:50.544Z,9.20
2022-09-29T15:06:25.042Z,7.80
2022-09-29T15:09:17.656Z,9.00
2022-09-29T15:11:51.328Z,8.90
2022-09-29T15:14:30.150Z,10.40
2022-09-29T15:17:14.798Z,9.50
2022-09-29T15:19:56.531Z,17.50
2022-09-29T15:22:46.216Z,24.80
2022-09-29T15:25:31.911Z,19.80
2022-09-29T15:28:28.318Z,25.20
2022-09-29T15:31:00.704Z,22.10
2022-09-29T15:33:31.801Z,26.80
2022-09-29T15:36:01.620Z,24.50
2022-09-29T15:38:40.078Z,16.40
2022-09-29T15:41:11.005Z,10.80
2022-09-29T15:43:56.560Z,12.30
2022-09-29T15:46:36.406Z,11.40
2022-09-29T15:49:10.554Z,18.50
2022-09-29T15:51:40.033Z,14.80
2022-09-29T15:54:11.599Z,13.70
2022-09-29T15:56:58.874Z,9.40
2022-09-29T15:59:41.818Z,11.40
2022-09-29T16:02:20.392Z,7.30
2022-09-29T16:04:53.328Z,16.90
2022-09-29T16:07:31.278Z,8.00
2022-09-29T16:21:00.104Z,11.00
2022-09-29T16:23:36.006Z,14.10
2022-09-29T16:28:37.586Z,10.30
2022-09-29T16:31:07.903Z,15.30
2022-09-29T16:33:36.735Z,14.00
2022-09-29T16:36:12.339Z,9.10
2022-09-29T16:38:52.346Z,15.40
2022-09-29T16:41:38.101Z,10.20
2022-09-29T16:46:56.565Z,10.90
2022-09-29T16:49:37.526Z,22.90
2022-09-29T16:52:11.122Z,36.60
2022-09-29T16:54:52.454Z,27.80
2022-09-29T16:57:31.259Z,23.40
2022-09-29T17:00:01.729Z,30.40
2022-09-29T17:02:30.211Z,17.90
2022-09-29T17:04:59.048Z,40.90
2022-09-29T17:07:27.650Z,19.60
2022-09-29T17:09:58.740Z,22.70
2022-09-29T17:12:30.858Z,23.00
2022-09-29T17:14:59.751Z,22.50
2022-09-29T17:17:28.815Z,28.40
2022-09-29T17:19:57.055Z,36.40
2022-09-29T17:22:39.180Z,79.80
2022-09-29T17:25:07.541Z,60.20
2022-09-29T17:27:53.830Z,71.70
2022-09-29T17:30:24.539Z,74.40
2022-09-29T17:32:58.249Z,52.80
2022-09-29T17:35:33.589Z,54.30
2022-09-29T17:38:01.342Z,48.80
2022-09-29T17:40:45.862Z,37.10
2022-09-29T17:43:13.625Z,32.90
2022-09-29T17:45:42.720Z,37.30
2022-09-29T17:48:10.984Z,34.40
2022-09-29T17:50:50.578Z,34.40
2022-09-29T17:53:19.291Z,34.40
2022-09-29T17:55:51.885Z,29.10
2022-09-29T17:58:20.693Z,19.10
2022-09-29T18:00:51.586Z,14.60
2022-09-29T18:03:21.090Z,14.70
2022-09-29T18:05:56.708Z,23.00
2022-09-29T18:08:26.856Z,20.30
2022-09-29T18:10:57.500Z,20.10
2022-09-29T18:13:27.796Z,22.30
2022-09-29T18:15:56.517Z,26.60
2022-09-29T18:18:25.512Z,30.50
2022-09-29T18:20:53.501Z,28.70
2022-09-29T18:23:25.469Z,30.80
2022-09-29T18:25:53.978Z,74.70
2022-09-29T18:28:21.679Z,99.70
2022-09-29T18:30:53.947Z,93.90
2022-09-29T18:33:21.856Z,90.60
2022-09-29T18:35:54.613Z,64.20
2022-09-29T18:38:23.511Z,53.50
2022-09-29T18:40:54.290Z,62.40
2022-09-29T18:43:25.253Z,71.60
2022-09-29T18:45:58.226Z,84.30
2022-09-29T18:48:26.036Z,32.90
2022-09-29T18:50:55.190Z,24.80
2022-09-29T18:53:24.060Z,19.20
2022-09-29T18:55:57.604Z,23.00
2022-09-29T18:58:25.455Z,21.00
2022-09-29T19:00:55.535Z,18.90
2022-09-29T19:03:26.543Z,31.30
2022-09-29T19:05:55.943Z,49.30
2022-09-29T19:08:24.952Z,47.50
2022-09-29T19:10:55.497Z,53.30
2022-09-29T19:13:23.315Z,49.90
2022-09-29T19:15:56.462Z,42.30
2022-09-29T19:18:25.129Z,38.60
2022-09-29T19:20:56.404Z,44.20
2022-09-29T19:23:25.957Z,36.40
2022-09-29T19:25:56.798Z,48.10
2022-09-29T19:28:27.202Z,47.70
2022-09-29T19:31:03.564Z,42.50
2022-09-29T19:33:31.525Z,37.90
2022-09-29T19:36:04.625Z,31.60
2022-09-29T19:38:32.501Z,34.00
2022-09-29T19:41:01.136Z,29.90
2022-09-29T19:43:29.025Z,28.00
2022-09-29T19:45:57.192Z,32.30
2022-09-29T19:48:24.921Z,32.60
2022-09-29T19:51:16.408Z,30.80
2022-09-29T19:53:48.675Z,30.90
2022-09-29T19:56:18.190Z,27.40
2022-09-29T19:58:46.224Z,29.00
2022-09-29T20:01:14.584Z,31.50
2022-09-29T20:03:43.577Z,25.00
2022-09-29T20:06:11.372Z,26.10
2022-09-29T20:08:39.348Z,26.40
2022-09-29T20:11:09.573Z,25.30
2022-09-29T20:13:38.876Z,24.20
2022-09-29T20:16:07.577Z,26.00
2022-09-29T20:18:37.481Z,28.10
2022-09-29T20:21:10.613Z,28.60
2022-09-29T20:23:39.663Z,27.70
2022-09-29T20:26:10.905Z,35.40
2022-09-29T20:28:40.337Z,32.00
2022-09-29T20:31:08.317Z,47.30
2022-09-29T20:33:36.967Z,48.80
2022-09-29T20:36:05.961Z,49.10
2022-09-29T20:38:39.644Z,50.50
2022-09-29T20:41:08.397Z,46.60
2022-09-29T20:43:37.093Z,32.70
2022-09-29T20:46:07.946Z,30.50
2022-09-29T20:48:37.935Z,28.80
2022-09-29T20:51:08.806Z,30.40
2022-09-29T20:53:40.552Z,28.10
2022-09-29T20:56:11.609Z,28.90
2022-09-29T20:58:42.411Z,33.30
2022-09-29T21:01:16.954Z,40.70
2022-09-29T21:03:50.125Z,43.70
2022-09-29T21:06:18.953Z,60.90
2022-09-29T21:08:47.437Z,73.40
2022-09-29T21:11:15.728Z,91.60
2022-09-29T21:13:46.817Z,47.80
2022-09-29T21:16:15.516Z,55.30
2022-09-29T21:18:44.230Z,43.30
2022-09-29T21:21:12.030Z,36.90
2022-09-29T21:23:42.414Z,42.50
2022-09-29T21:26:19.175Z,73.00
2022-09-29T21:28:55.604Z,68.00
2022-09-29T21:31:26.375Z,74.00
2022-09-29T21:34:00.732Z,70.80
2022-09-29T21:36:31.050Z,52.80
2022-09-29T21:38:59.138Z,42.50
2022-09-29T21:41:30.163Z,57.20
2022-09-29T21:44:01.143Z,50.60
2022-09-29T21:46:31.802Z,54.40
2022-09-29T21:49:04.633Z,49.50
2022-09-29T21:51:35.380Z,60.00
2022-09-29T21:54:05.366Z,72.30
2022-09-29T21:56:41.536Z,48.00
2022-09-29T21:59:11.373Z,46.50
2022-09-29T22:01:40.299Z,49.70
2022-09-29T22:04:09.313Z,47.20
2022-09-29T22:06:39.146Z,48.10
2022-09-29T22:09:08.704Z,98.30
2022-09-29T22:11:42.398Z,111.20
2022-09-29T22:14:13.345Z,104.80
2022-09-29T22:16:41.160Z,71.30
2022-09-29T22:19:26.121Z,75.40
2022-09-29T22:21:54.352Z,74.90
2022-09-29T22:24:24.543Z,104.70
2022-09-29T22:26:52.397Z,101.70
2022-09-29T22:29:20.563Z,78.50
2022-09-29T22:31:48.418Z,76.40
2022-09-29T22:34:17.045Z,57.50
2022-09-29T22:36:44.823Z,55.60
2022-09-29T22:39:13.241Z,71.80
2022-09-29T22:41:41.348Z,65.20
2022-09-29T22:44:09.454Z,44.60
2022-09-29T22:46:37.186Z,45.00
2022-09-29T22:49:05.436Z,40.70
2022-09-29T22:51:33.372Z,37.70
2022-09-29T22:54:01.317Z,37.80
2022-09-29T22:56:29.488Z,37.70
2022-09-29T22:59:04.499Z,37.50
2022-09-29T23:01:33.619Z,44.10
2022-09-29T23:04:04.340Z,41.40
2022-09-29T23:06:33.879Z,42.60
2022-09-29T23:09:01.970Z,36.50
2022-09-29T23:11:31.497Z,38.60
2022-09-29T23:14:00.942Z,44.70
2022-09-29T23:16:29.075Z,37.30
2022-09-29T23:18:58.719Z,38.30
2022-09-29T23:21:27.410Z,41.20
2022-09-29T23:23:57.961Z,48.50
2022-09-29T23:26:27.013Z,63.40
2022-09-29T23:28:55.884Z,85.60
2022-09-29T23:31:24.225Z,86.10
2022-09-29T23:34:02.231Z,75.90
2022-09-29T23:36:31.631Z,53.20
2022-09-29T23:39:11.467Z,42.50
2022-09-29T23:41:50.083Z,46.10
2022-09-29T23:44:20.637Z,37.30
2022-09-29T23:46:48.638Z,32.60
2022-09-29T23:49:19.598Z,31.20
2022-09-29T23:51:50.284Z,33.30
2022-09-29T23:54:21.868Z,35.50
2022-09-29T23:56:52.251Z,34.60
2022-09-29T23:59:20.894Z,43.20
